createdAt,value
2022-12-25T00:00:20.480Z,993.49
2022-12-25T00:01:16.795Z,993.43
2022-12-25T00:02:16.822Z,993.43
2022-12-25T00:03:16.842Z,993.42
2022-12-25T00:04:16.792Z,993.42
2022-12-25T00:05:16.819Z,993.36
2022-12-25T00:06:16.813Z,993.33
2022-12-25T00:07:16.832Z,993.37
2022-12-25T00:08:16.805Z,993.29
2022-12-25T00:09:16.811Z,993.33
2022-12-25T00:10:16.808Z,993.33
2022-12-25T00:11:16.848Z,993.27
2022-12-25T00:12:16.810Z,993.28
2022-12-25T00:13:16.806Z,993.25
2022-12-25T00:14:16.795Z,993.17
2022-12-25T00:15:16.788Z,993.18
2022-12-25T00:16:16.882Z,993.15
2022-12-25T00:17:16.839Z,993.13
2022-12-25T00:18:16.809Z,993.12
2022-12-25T00:19:16.810Z,993.08
2022-12-25T00:20:16.830Z,993.13
2022-12-25T00:21:16.822Z,993.08
2022-12-25T00:22:16.810Z,993.02
2022-12-25T00:23:16.842Z,993.01
2022-12-25T00:24:16.826Z,992.97
2022-12-25T00:25:16.808Z,992.97
2022-12-25T00:26:16.825Z,993.02
2022-12-25T00:27:16.811Z,993.02
2022-12-25T00:28:16.829Z,993.12
2022-12-25T00:29:16.810Z,993.06
2022-12-25T00:30:16.827Z,993.14
2022-12-25T00:31:16.890Z,993.13
2022-12-25T00:32:16.832Z,993.10
2022-12-25T00:33:16.814Z,993.12
2022-12-25T00:34:16.825Z,993.19
2022-12-25T00:35:16.817Z,993.06
2022-12-25T00:36:16.809Z,993.13
2022-12-25T00:37:16.822Z,993.18
2022-12-25T00:38:16.848Z,993.24
2022-12-25T00:39:16.834Z,993.24
2022-12-25T00:40:16.820Z,993.38
2022-12-25T00:41:16.831Z,993.42
2022-12-25T00:42:16.841Z,993.37
2022-12-25T00:43:16.833Z,993.38
2022-12-25T00:44:16.816Z,993.34
2022-12-25T00:45:16.828Z,993.38
2022-12-25T00:46:16.993Z,993.39
2022-12-25T00:47:16.892Z,993.31
2022-12-25T00:48:16.872Z,993.38
2022-12-25T00:49:16.845Z,993.35
2022-12-25T00:50:16.834Z,993.27
2022-12-25T00:51:16.843Z,993.32
2022-12-25T00:52:16.849Z,993.35
2022-12-25T00:53:16.842Z,993.43
2022-12-25T00:54:16.858Z,993.45
2022-12-25T00:55:16.854Z,993.37
2022-12-25T00:56:16.834Z,993.28
2022-12-25T00:57:16.847Z,993.37
2022-12-25T00:58:16.866Z,993.28
2022-12-25T00:59:16.875Z,993.23
2022-12-25T01:00:16.873Z,993.21
2022-12-25T01:01:17.021Z,993.30
2022-12-25T01:02:17.080Z,993.24
2022-12-25T01:03:16.929Z,993.29
2022-12-25T01:04:16.843Z,993.24
2022-12-25T01:05:16.878Z,993.29
2022-12-25T01:06:16.866Z,993.19
2022-12-25T01:07:16.948Z,993.25
2022-12-25T01:08:16.877Z,993.21
2022-12-25T01:09:16.856Z,993.20
2022-12-25T01:10:16.871Z,993.19
2022-12-25T01:11:16.863Z,993.14
2022-12-25T01:12:16.865Z,993.15
2022-12-25T01:13:16.885Z,993.20
2022-12-25T01:14:16.861Z,993.19
2022-12-25T01:15:16.892Z,993.19
2022-12-25T01:16:16.938Z,993.20
2022-12-25T01:17:16.868Z,993.23
2022-12-25T01:18:16.851Z,993.22
2022-12-25T01:19:16.859Z,993.26
2022-12-25T01:20:16.889Z,993.19
2022-12-25T01:21:16.863Z,993.23
2022-12-25T01:22:16.851Z,993.23
2022-12-25T01:23:16.862Z,993.30
2022-12-25T01:24:16.869Z,993.32
2022-12-25T01:25:16.898Z,993.29
2022-12-25T01:26:16.875Z,993.30
2022-12-25T01:27:16.897Z,993.23
2022-12-25T01:28:16.865Z,993.24
2022-12-25T01:29:16.892Z,993.29
2022-12-25T01:30:16.912Z,993.25
2022-12-25T01:31:16.926Z,993.27
2022-12-25T01:32:16.913Z,993.26
2022-12-25T01:33:16.880Z,993.27
2022-12-25T01:34:16.895Z,993.28
2022-12-25T01:35:16.918Z,993.34
2022-12-25T01:36:16.896Z,993.33
2022-12-25T01:37:16.930Z,993.33
2022-12-25T01:38:16.938Z,993.34
2022-12-25T01:39:16.956Z,993.33
2022-12-25T01:40:16.971Z,993.26
2022-12-25T01:41:17.003Z,993.28
2022-12-25T01:42:16.978Z,993.22
2022-12-25T01:43:18.724Z,993.31
2022-12-25T01:44:17.018Z,993.31
2022-12-25T01:45:17.118Z,993.27
2022-12-25T01:46:17.167Z,993.33
2022-12-25T01:47:17.113Z,993.36
2022-12-25T01:48:17.119Z,993.43
2022-12-25T01:49:17.110Z,993.41
2022-12-25T01:50:17.120Z,993.37
2022-12-25T01:51:17.108Z,993.37
2022-12-25T01:52:23.325Z,993.39
2022-12-25T01:53:17.182Z,993.37
2022-12-25T01:54:17.131Z,993.38
2022-12-25T01:55:17.159Z,993.42
2022-12-25T01:56:17.150Z,993.39
2022-12-25T01:57:17.136Z,993.34
2022-12-25T01:58:17.129Z,993.37
2022-12-25T01:59:17.123Z,993.43
2022-12-25T02:00:17.145Z,993.32
2022-12-25T02:01:17.273Z,993.35
2022-12-25T02:02:17.260Z,993.36
2022-12-25T02:03:17.159Z,993.43
2022-12-25T02:04:17.136Z,993.46
2022-12-25T02:05:17.176Z,993.45
2022-12-25T02:06:17.145Z,993.38
2022-12-25T02:07:17.130Z,993.29
2022-12-25T02:08:17.153Z,993.36
2022-12-25T02:09:17.195Z,993.28
2022-12-25T02:10:17.143Z,993.24
2022-12-25T02:11:17.144Z,993.25
2022-12-25T02:12:17.129Z,993.25
2022-12-25T02:13:17.156Z,993.26
2022-12-25T02:14:17.146Z,993.24
2022-12-25T02:15:17.149Z,993.19
2022-12-25T02:16:17.197Z,993.21
2022-12-25T02:17:17.206Z,993.19
2022-12-25T02:18:17.146Z,993.16
2022-12-25T02:19:17.159Z,993.17
2022-12-25T02:20:17.160Z,993.14
2022-12-25T02:21:17.170Z,993.05
2022-12-25T02:22:17.170Z,993.02
2022-12-25T02:23:17.154Z,993.12
2022-12-25T02:24:17.157Z,993.04
2022-12-25T02:25:17.164Z,993.00
2022-12-25T02:26:17.170Z,993.09
2022-12-25T02:27:17.164Z,993.11
2022-12-25T02:28:17.140Z,993.09
2022-12-25T02:29:17.171Z,993.07
2022-12-25T02:30:17.197Z,993.03
2022-12-25T02:31:17.251Z,993.06
2022-12-25T02:32:17.222Z,993.01
2022-12-25T02:33:17.156Z,993.01
2022-12-25T02:34:17.166Z,992.98
2022-12-25T02:35:17.161Z,992.96
2022-12-25T02:36:17.188Z,992.96
2022-12-25T02:37:17.165Z,993.01
2022-12-25T02:38:17.186Z,992.90
2022-12-25T02:39:17.156Z,992.94
2022-12-25T02:40:17.194Z,992.88
2022-12-25T02:41:17.171Z,992.85
2022-12-25T02:42:17.204Z,992.85
2022-12-25T02:43:17.213Z,992.85
2022-12-25T02:44:17.185Z,992.94
2022-12-25T02:45:17.189Z,992.95
2022-12-25T02:46:17.234Z,992.97
2022-12-25T02:47:17.190Z,992.99
2022-12-25T02:48:17.185Z,993.02
2022-12-25T02:49:17.201Z,992.98
2022-12-25T02:50:17.154Z,992.99
2022-12-25T02:51:17.169Z,993.16
2022-12-25T02:52:17.178Z,993.06
2022-12-25T02:53:17.164Z,993.16
2022-12-25T02:54:17.185Z,993.11
2022-12-25T02:55:17.193Z,993.10
2022-12-25T02:56:17.196Z,993.10
2022-12-25T02:57:17.205Z,993.16
2022-12-25T02:58:17.189Z,993.18
2022-12-25T02:59:17.190Z,993.26
2022-12-25T03:00:17.225Z,993.23
2022-12-25T03:01:17.326Z,993.20
2022-12-25T03:02:17.258Z,993.24
2022-12-25T03:03:17.237Z,993.23
2022-12-25T03:04:17.237Z,993.22
2022-12-25T03:05:17.209Z,993.20
2022-12-25T03:06:17.220Z,993.17
2022-12-25T03:07:17.217Z,993.21
2022-12-25T03:08:17.216Z,993.23
2022-12-25T03:09:17.183Z,993.19
2022-12-25T03:10:17.196Z,993.20
2022-12-25T03:11:17.221Z,993.13
2022-12-25T03:12:17.225Z,993.14
2022-12-25T03:13:17.229Z,993.15
2022-12-25T03:14:17.230Z,993.18
2022-12-25T03:15:17.207Z,993.19
2022-12-25T03:16:17.230Z,993.28
2022-12-25T03:17:17.217Z,993.25
2022-12-25T03:18:17.208Z,993.19
2022-12-25T03:19:17.233Z,993.21
2022-12-25T03:20:17.203Z,993.24
2022-12-25T03:21:17.214Z,993.18
2022-12-25T03:22:17.207Z,993.22
2022-12-25T03:23:17.232Z,993.21
2022-12-25T03:24:17.223Z,993.11
2022-12-25T03:25:17.188Z,993.12
2022-12-25T03:26:17.219Z,993.18
2022-12-25T03:27:17.203Z,993.15
2022-12-25T03:28:17.244Z,993.18
2022-12-25T03:29:17.239Z,993.08
2022-12-25T03:30:17.216Z,993.14
2022-12-25T03:31:17.417Z,993.09
2022-12-25T03:32:17.204Z,993.14
2022-12-25T03:33:43.168Z,993.16
2022-12-25T03:34:17.242Z,993.05
2022-12-25T03:35:17.232Z,993.08
2022-12-25T03:36:17.217Z,993.07
2022-12-25T03:37:17.272Z,993.05
2022-12-25T03:38:17.249Z,993.12
2022-12-25T03:39:17.239Z,993.11
2022-12-25T03:40:17.230Z,993.07
2022-12-25T03:41:17.242Z,993.09
2022-12-25T03:42:17.226Z,993.08
2022-12-25T03:43:17.228Z,993.04
2022-12-25T03:44:17.274Z,993.00
2022-12-25T03:45:17.239Z,993.00
2022-12-25T03:46:17.307Z,992.90
2022-12-25T03:47:17.243Z,992.87
2022-12-25T03:48:17.258Z,992.84
2022-12-25T03:49:17.241Z,992.81
2022-12-25T03:50:17.532Z,992.87
2022-12-25T03:51:17.289Z,992.82
2022-12-25T03:52:17.254Z,992.73
2022-12-25T03:53:17.257Z,992.79
2022-12-25T03:54:17.267Z,992.65
2022-12-25T03:55:17.247Z,992.69
2022-12-25T03:56:17.261Z,992.76
2022-12-25T03:57:17.286Z,992.78
2022-12-25T03:58:17.241Z,992.75
2022-12-25T03:59:23.180Z,992.75
2022-12-25T04:00:17.259Z,992.74
2022-12-25T04:01:17.369Z,992.68
2022-12-25T04:02:17.341Z,992.68
2022-12-25T04:03:17.267Z,992.79
2022-12-25T04:04:17.225Z,992.86
2022-12-25T04:05:17.272Z,992.80
2022-12-25T04:06:17.248Z,992.86
2022-12-25T04:07:17.269Z,992.77
2022-12-25T04:08:17.236Z,992.78
2022-12-25T04:09:17.245Z,992.77
2022-12-25T04:10:17.236Z,992.79
2022-12-25T04:11:17.243Z,992.82
2022-12-25T04:12:17.285Z,992.87
2022-12-25T04:13:17.271Z,992.80
2022-12-25T04:14:17.264Z,992.74
2022-12-25T04:15:17.264Z,992.77
2022-12-25T04:16:17.319Z,992.66
2022-12-25T04:17:17.281Z,992.74
2022-12-25T04:18:17.269Z,992.80
2022-12-25T04:19:17.253Z,992.71
2022-12-25T04:20:17.284Z,992.81
2022-12-25T04:21:17.279Z,992.74
2022-12-25T04:22:17.284Z,992.72
2022-12-25T04:23:17.287Z,992.72
2022-12-25T04:24:17.267Z,992.72
2022-12-25T04:25:17.281Z,992.69
2022-12-25T04:26:17.279Z,992.78
2022-12-25T04:27:17.280Z,992.74
2022-12-25T04:28:17.282Z,992.75
2022-12-25T04:29:17.337Z,992.72
2022-12-25T04:30:17.339Z,992.73
2022-12-25T04:31:17.371Z,992.76
2022-12-25T04:32:17.319Z,992.75
2022-12-25T04:33:17.354Z,992.77
2022-12-25T04:34:17.311Z,992.81
2022-12-25T04:35:17.399Z,992.83
2022-12-25T04:36:17.389Z,992.83
2022-12-25T04:37:17.385Z,992.87
2022-12-25T04:38:17.427Z,992.83
2022-12-25T04:39:17.409Z,992.81
2022-12-25T04:40:17.429Z,992.78
2022-12-25T04:41:17.451Z,992.67
2022-12-25T04:42:17.455Z,992.67
2022-12-25T04:43:17.411Z,992.59
2022-12-25T04:44:17.449Z,992.61
2022-12-25T04:45:17.409Z,992.59
2022-12-25T04:46:17.632Z,992.55
2022-12-25T04:47:17.496Z,992.56
2022-12-25T04:48:17.509Z,992.59
2022-12-25T04:49:17.782Z,992.55
2022-12-25T04:50:17.525Z,992.65
2022-12-25T04:51:17.523Z,992.59
2022-12-25T04:52:17.532Z,992.54
2022-12-25T04:53:17.524Z,992.54
2022-12-25T04:54:17.532Z,992.57
2022-12-25T04:55:17.564Z,992.58
2022-12-25T04:56:17.560Z,992.60
2022-12-25T04:57:17.649Z,992.63
2022-12-25T04:58:17.665Z,992.69
2022-12-25T04:59:17.672Z,992.67
2022-12-25T05:00:17.690Z,992.75
2022-12-25T05:01:17.789Z,992.75
2022-12-25T05:02:17.793Z,992.74
2022-12-25T05:03:17.785Z,992.81
2022-12-25T05:04:17.717Z,992.73
2022-12-25T05:05:17.733Z,992.78
2022-12-25T05:06:17.749Z,992.74
2022-12-25T05:07:17.741Z,992.82
2022-12-25T05:08:17.707Z,992.80
2022-12-25T05:09:17.739Z,992.81
2022-12-25T05:10:17.725Z,992.75
2022-12-25T05:11:17.743Z,992.81
2022-12-25T05:12:17.800Z,992.74
2022-12-25T05:13:17.795Z,992.78
2022-12-25T05:14:17.808Z,992.72
2022-12-25T05:15:17.801Z,992.68
2022-12-25T05:16:18.042Z,992.73
2022-12-25T05:17:17.795Z,992.73
2022-12-25T05:18:17.853Z,992.78
2022-12-25T05:19:17.815Z,992.81
2022-12-25T05:20:17.851Z,992.76
2022-12-25T05:21:17.898Z,992.81
2022-12-25T05:22:17.858Z,992.78
2022-12-25T05:23:17.868Z,992.74
2022-12-25T05:24:17.972Z,992.79
2022-12-25T05:25:17.997Z,992.79
2022-12-25T05:26:17.988Z,992.80
2022-12-25T05:27:18.009Z,992.69
2022-12-25T05:28:18.049Z,992.63
2022-12-25T05:29:18.037Z,992.64
2022-12-25T05:30:18.032Z,992.62
2022-12-25T05:31:18.111Z,992.59
2022-12-25T05:32:18.010Z,992.64
2022-12-25T05:33:18.177Z,992.65
2022-12-25T05:34:18.212Z,992.74
2022-12-25T05:35:18.180Z,992.75
2022-12-25T05:36:18.210Z,992.68
2022-12-25T05:37:18.194Z,992.74
2022-12-25T05:38:18.213Z,992.73
2022-12-25T05:39:18.214Z,992.68
2022-12-25T05:40:18.206Z,992.64
2022-12-25T05:41:18.234Z,992.64
2022-12-25T05:42:18.189Z,992.65
2022-12-25T05:43:18.332Z,992.61
2022-12-25T05:44:18.315Z,992.64
2022-12-25T05:45:18.316Z,992.59
2022-12-25T05:46:18.385Z,992.53
2022-12-25T05:47:18.380Z,992.54
2022-12-25T05:48:18.418Z,992.47
2022-12-25T05:49:18.375Z,992.46
2022-12-25T05:50:18.404Z,992.47
2022-12-25T05:51:18.370Z,992.42
2022-12-25T05:52:18.400Z,992.46
2022-12-25T05:53:18.385Z,992.43
2022-12-25T05:54:18.397Z,992.49
2022-12-25T05:55:18.413Z,992.44
2022-12-25T05:56:18.419Z,992.43
2022-12-25T05:57:18.396Z,992.45
2022-12-25T05:58:18.395Z,992.36
2022-12-25T05:59:18.378Z,992.41
2022-12-25T06:00:18.401Z,992.41
2022-12-25T06:01:18.642Z,992.38
2022-12-25T06:02:18.692Z,992.40
2022-12-25T06:03:18.591Z,992.44
2022-12-25T06:04:18.572Z,992.34
2022-12-25T06:05:18.538Z,992.43
2022-12-25T06:06:18.633Z,992.40
2022-12-25T06:07:18.611Z,992.44
2022-12-25T06:08:18.593Z,992.39
2022-12-25T06:09:18.634Z,992.35
2022-12-25T06:10:18.616Z,992.32
2022-12-25T06:11:18.596Z,992.33
2022-12-25T06:12:18.652Z,992.34
2022-12-25T06:13:18.579Z,992.34
2022-12-25T06:14:18.664Z,992.35
2022-12-25T06:15:18.663Z,992.30
2022-12-25T06:16:18.726Z,992.26
2022-12-25T06:17:18.695Z,992.29
2022-12-25T06:18:18.674Z,992.31
2022-12-25T06:19:18.754Z,992.31
2022-12-25T06:20:18.765Z,992.26
2022-12-25T06:21:18.751Z,992.30
2022-12-25T06:22:18.759Z,992.22
2022-12-25T06:23:18.818Z,992.24
2022-12-25T06:24:21.468Z,992.35
2022-12-25T06:25:18.760Z,992.31
2022-12-25T06:26:18.770Z,992.28
2022-12-25T06:27:18.764Z,992.29
2022-12-25T06:28:18.775Z,992.27
2022-12-25T06:29:18.730Z,992.28
2022-12-25T06:30:18.763Z,992.30
2022-12-25T06:31:18.804Z,992.27
2022-12-25T06:32:18.818Z,992.30
2022-12-25T06:33:18.752Z,992.29
2022-12-25T06:34:18.792Z,992.27
2022-12-25T06:35:18.761Z,992.25
2022-12-25T06:36:18.742Z,992.20
2022-12-25T06:37:18.760Z,992.29
2022-12-25T06:38:18.744Z,992.26
2022-12-25T06:39:18.781Z,992.18
2022-12-25T06:40:18.791Z,992.16
2022-12-25T06:41:18.735Z,992.18
2022-12-25T06:42:18.769Z,992.19
2022-12-25T06:43:18.767Z,992.24
2022-12-25T06:44:18.764Z,992.20
2022-12-25T06:45:18.762Z,992.28
2022-12-25T06:46:18.867Z,992.19
2022-12-25T06:47:18.797Z,992.18
2022-12-25T06:48:18.777Z,992.24
2022-12-25T06:49:18.795Z,992.13
2022-12-25T06:50:18.751Z,992.18
2022-12-25T06:51:18.754Z,992.14
2022-12-25T06:52:18.813Z,992.16
2022-12-25T06:53:18.774Z,992.16
2022-12-25T06:54:18.775Z,992.14
2022-12-25T06:55:18.781Z,992.17
2022-12-25T06:56:18.796Z,992.11
2022-12-25T06:57:18.769Z,992.09
2022-12-25T06:58:18.760Z,992.11
2022-12-25T06:59:18.772Z,992.09
2022-12-25T07:00:18.779Z,992.04
2022-12-25T07:01:18.924Z,992.13
2022-12-25T07:02:18.981Z,992.17
2022-12-25T07:03:18.860Z,992.11
2022-12-25T07:04:18.837Z,992.14
2022-12-25T07:05:18.792Z,992.21
2022-12-25T07:06:18.770Z,992.18
2022-12-25T07:07:18.787Z,992.21
2022-12-25T07:08:18.825Z,992.21
2022-12-25T07:09:18.817Z,992.28
2022-12-25T07:10:18.770Z,992.22
2022-12-25T07:11:18.787Z,992.33
2022-12-25T07:12:18.803Z,992.28
2022-12-25T07:13:18.818Z,992.30
2022-12-25T07:14:23.390Z,992.25
2022-12-25T07:15:18.774Z,992.25
2022-12-25T07:16:18.839Z,992.16
2022-12-25T07:17:18.792Z,992.14
2022-12-25T07:18:18.809Z,992.10
2022-12-25T07:19:18.814Z,992.01
2022-12-25T07:20:18.806Z,992.03
2022-12-25T07:21:18.824Z,991.99
2022-12-25T07:22:18.798Z,991.96
2022-12-25T07:23:18.812Z,991.94
2022-12-25T07:24:18.844Z,991.82
2022-12-25T07:25:18.809Z,991.88
2022-12-25T07:26:18.792Z,991.84
2022-12-25T07:27:18.866Z,991.87
2022-12-25T07:28:18.826Z,991.84
2022-12-25T07:29:18.820Z,991.94
2022-12-25T07:30:18.829Z,991.95
2022-12-25T07:31:18.888Z,991.99
2022-12-25T07:32:18.805Z,992.06
2022-12-25T07:33:18.823Z,992.05
2022-12-25T07:34:18.810Z,992.08
2022-12-25T07:35:18.824Z,992.13
2022-12-25T07:36:18.821Z,992.14
2022-12-25T07:37:18.831Z,992.15
2022-12-25T07:38:18.816Z,992.09
2022-12-25T07:39:18.823Z,992.13
2022-12-25T07:40:18.845Z,992.13
2022-12-25T07:41:18.832Z,992.06
2022-12-25T07:42:24.798Z,991.97
2022-12-25T07:43:18.834Z,992.07
2022-12-25T07:44:18.822Z,991.96
2022-12-25T07:45:18.844Z,991.96
2022-12-25T07:46:18.876Z,991.93
2022-12-25T07:47:18.843Z,991.93
2022-12-25T07:48:18.832Z,991.84
2022-12-25T07:49:18.846Z,991.90
2022-12-25T07:50:18.879Z,991.94
2022-12-25T07:51:18.846Z,992.00
2022-12-25T07:52:18.831Z,992.06
2022-12-25T07:53:18.845Z,992.03
2022-12-25T07:54:18.850Z,992.06
2022-12-25T07:55:18.868Z,992.00
2022-12-25T07:56:18.857Z,992.03
2022-12-25T07:57:18.832Z,992.11
2022-12-25T07:58:23.265Z,992.10
2022-12-25T07:59:18.869Z,992.03
2022-12-25T08:00:18.873Z,992.00
2022-12-25T08:01:19.012Z,991.84
2022-12-25T08:02:19.070Z,991.80
2022-12-25T08:03:19.051Z,991.81
2022-12-25T08:04:18.922Z,991.75
2022-12-25T08:05:18.851Z,991.78
2022-12-25T08:06:18.866Z,991.76
2022-12-25T08:07:18.855Z,991.67
2022-12-25T08:08:18.885Z,991.65
2022-12-25T08:09:18.879Z,991.73
2022-12-25T08:10:18.856Z,991.74
2022-12-25T08:11:18.848Z,991.80
2022-12-25T08:12:18.873Z,991.72
2022-12-25T08:13:18.893Z,991.82
2022-12-25T08:14:18.846Z,991.74
2022-12-25T08:15:18.877Z,991.73
2022-12-25T08:16:18.893Z,991.68
2022-12-25T08:17:19.069Z,991.69
2022-12-25T08:18:19.371Z,991.64
2022-12-25T08:19:18.881Z,991.61
2022-12-25T08:20:18.879Z,991.62
2022-12-25T08:21:18.853Z,991.60
2022-12-25T08:22:18.854Z,991.71
2022-12-25T08:23:18.900Z,991.70
2022-12-25T08:24:18.897Z,991.78
2022-12-25T08:25:18.865Z,991.80
2022-12-25T08:26:18.876Z,991.77
2022-12-25T08:27:18.937Z,991.75
2022-12-25T08:28:18.877Z,991.79
2022-12-25T08:29:18.895Z,991.79
2022-12-25T08:30:18.886Z,991.81
2022-12-25T08:31:19.013Z,991.79
2022-12-25T08:32:18.879Z,991.66
2022-12-25T08:33:18.903Z,991.75
2022-12-25T08:34:18.883Z,991.81
2022-12-25T08:35:18.864Z,991.83
2022-12-25T08:36:18.884Z,991.86
2022-12-25T08:37:18.883Z,991.83
2022-12-25T08:38:18.922Z,991.83
2022-12-25T08:39:18.869Z,991.79
2022-12-25T08:40:18.877Z,991.84
2022-12-25T08:41:18.890Z,991.72
2022-12-25T08:42:18.894Z,991.70
2022-12-25T08:43:18.903Z,991.65
2022-12-25T08:44:18.900Z,991.50
2022-12-25T08:45:18.928Z,991.53
2022-12-25T08:46:19.001Z,991.43
2022-12-25T08:47:19.000Z,991.47
2022-12-25T08:48:19.015Z,991.45
2022-12-25T08:49:19.029Z,991.47
2022-12-25T08:50:19.038Z,991.52
2022-12-25T08:51:19.049Z,991.53
2022-12-25T08:52:19.083Z,991.55
2022-12-25T08:53:19.078Z,991.48
2022-12-25T08:54:19.088Z,991.50
2022-12-25T08:55:19.092Z,991.50
2022-12-25T08:56:19.167Z,991.55
2022-12-25T08:57:19.117Z,991.56
2022-12-25T08:58:19.102Z,991.57
2022-12-25T08:59:19.095Z,991.62
2022-12-25T09:00:19.126Z,991.60
2022-12-25T09:01:19.195Z,991.58
2022-12-25T09:02:19.294Z,991.64
2022-12-25T09:03:19.179Z,991.70
2022-12-25T09:04:19.115Z,991.65
2022-12-25T09:05:19.122Z,991.73
2022-12-25T09:06:19.260Z,991.74
2022-12-25T09:07:19.252Z,991.78
2022-12-25T09:08:19.224Z,991.73
2022-12-25T09:09:19.202Z,991.68
2022-12-25T09:10:19.279Z,991.67
2022-12-25T09:11:19.317Z,991.73
2022-12-25T09:12:19.262Z,991.71
2022-12-25T09:13:19.224Z,991.73
2022-12-25T09:14:19.236Z,991.68
2022-12-25T09:15:19.321Z,991.63
2022-12-25T09:16:19.399Z,991.68
2022-12-25T09:17:19.358Z,991.59
2022-12-25T09:18:19.353Z,991.65
2022-12-25T09:19:19.375Z,991.54
2022-12-25T09:20:19.425Z,991.64
2022-12-25T09:21:19.381Z,991.58
2022-12-25T09:22:19.430Z,991.54
2022-12-25T09:23:19.438Z,991.63
2022-12-25T09:24:19.470Z,991.60
2022-12-25T09:25:19.451Z,991.62
2022-12-25T09:26:19.431Z,991.66
2022-12-25T09:27:19.411Z,991.56
2022-12-25T09:28:19.418Z,991.50
2022-12-25T09:29:19.505Z,991.52
2022-12-25T09:30:19.493Z,991.49
2022-12-25T09:31:19.584Z,991.50
2022-12-25T09:32:19.513Z,991.50
2022-12-25T09:33:19.515Z,991.46
2022-12-25T09:34:19.592Z,991.55
2022-12-25T09:35:19.576Z,991.54
2022-12-25T09:36:19.544Z,991.53
2022-12-25T09:37:19.571Z,991.57
2022-12-25T09:38:19.555Z,991.58
2022-12-25T09:39:19.571Z,991.53
2022-12-25T09:40:19.583Z,991.48
2022-12-25T09:41:19.610Z,991.47
2022-12-25T09:42:19.576Z,991.54
2022-12-25T09:43:19.579Z,991.53
2022-12-25T09:44:19.588Z,991.54
2022-12-25T09:45:19.641Z,991.48
2022-12-25T09:46:19.678Z,991.48
2022-12-25T09:47:19.669Z,991.43
2022-12-25T09:48:19.635Z,991.42
2022-12-25T09:49:19.656Z,991.39
2022-12-25T09:50:19.753Z,991.36
2022-12-25T09:51:19.669Z,991.36
2022-12-25T09:52:19.661Z,991.23
2022-12-25T09:53:19.674Z,991.31
2022-12-25T09:54:19.822Z,991.26
2022-12-25T09:55:20.892Z,991.23
2022-12-25T09:56:19.732Z,991.24
2022-12-25T09:57:19.860Z,991.17
2022-12-25T09:58:19.834Z,991.14
2022-12-25T09:59:19.876Z,991.10
2022-12-25T10:00:19.909Z,990.96
2022-12-25T10:01:20.032Z,990.94
2022-12-25T10:02:20.049Z,990.96
2022-12-25T10:03:19.927Z,990.93
2022-12-25T10:04:19.888Z,990.92
2022-12-25T10:05:19.891Z,990.95
2022-12-25T10:06:19.882Z,990.84
2022-12-25T10:07:19.896Z,990.83
2022-12-25T10:08:19.859Z,990.83
2022-12-25T10:09:19.895Z,990.75
2022-12-25T10:10:19.907Z,990.78
2022-12-25T10:11:19.957Z,990.72
2022-12-25T10:12:19.918Z,990.67
2022-12-25T10:13:19.956Z,990.66
2022-12-25T10:14:19.982Z,990.65
2022-12-25T10:15:19.970Z,990.58
2022-12-25T10:16:20.014Z,990.64
2022-12-25T10:17:20.011Z,990.50
2022-12-25T10:18:20.019Z,990.54
2022-12-25T10:19:20.047Z,990.63
2022-12-25T10:20:20.038Z,990.62
2022-12-25T10:21:20.043Z,990.76
2022-12-25T10:22:20.081Z,990.66
2022-12-25T10:23:20.077Z,990.73
2022-12-25T10:24:20.141Z,990.72
2022-12-25T10:25:20.310Z,990.72
2022-12-25T10:26:20.158Z,990.68
2022-12-25T10:27:20.132Z,990.64
2022-12-25T10:28:20.218Z,990.57
2022-12-25T10:29:20.239Z,990.43
2022-12-25T10:30:20.286Z,990.51
2022-12-25T10:31:20.308Z,990.51
2022-12-25T10:32:20.228Z,990.68
2022-12-25T10:33:20.230Z,990.62
2022-12-25T10:34:20.228Z,990.66
2022-12-25T10:35:20.275Z,990.67
2022-12-25T10:36:20.261Z,990.71
2022-12-25T10:37:20.240Z,990.80
2022-12-25T10:38:20.242Z,990.81
2022-12-25T10:39:20.287Z,990.89
2022-12-25T10:40:20.358Z,990.76
2022-12-25T10:41:20.282Z,990.86
2022-12-25T10:42:20.330Z,990.85
2022-12-25T10:43:20.337Z,990.93
2022-12-25T10:44:20.458Z,990.74
2022-12-25T10:45:20.483Z,990.82
2022-12-25T10:46:20.490Z,990.77
2022-12-25T10:47:20.420Z,990.74
2022-12-25T10:48:20.407Z,990.74
2022-12-25T10:49:20.408Z,990.73
2022-12-25T10:50:20.446Z,990.71
2022-12-25T10:51:20.430Z,990.74
2022-12-25T10:52:20.448Z,990.61
2022-12-25T10:53:20.451Z,990.57
2022-12-25T10:54:20.447Z,990.50
2022-12-25T10:55:26.525Z,990.58
2022-12-25T10:56:20.458Z,990.52
2022-12-25T10:57:20.437Z,990.56
2022-12-25T10:58:20.448Z,990.58
2022-12-25T10:59:20.447Z,990.59
2022-12-25T11:00:20.477Z,990.46
2022-12-25T11:01:20.569Z,990.45
2022-12-25T11:02:20.753Z,990.51
2022-12-25T11:03:20.681Z,990.50
2022-12-25T11:04:20.461Z,990.48
2022-12-25T11:05:20.484Z,990.50
2022-12-25T11:06:20.484Z,990.52
2022-12-25T11:07:20.442Z,990.55
2022-12-25T11:08:20.471Z,990.52
2022-12-25T11:09:20.460Z,990.51
2022-12-25T11:10:20.487Z,990.52
2022-12-25T11:11:20.511Z,990.52
2022-12-25T11:12:20.464Z,990.55
2022-12-25T11:13:20.480Z,990.52
2022-12-25T11:14:20.500Z,990.45
2022-12-25T11:15:20.484Z,990.53
2022-12-25T11:16:20.597Z,990.51
2022-12-25T11:17:20.454Z,990.52
2022-12-25T11:18:20.482Z,990.50
2022-12-25T11:19:20.485Z,990.44
2022-12-25T11:20:20.490Z,990.42
2022-12-25T11:21:20.486Z,990.38
2022-12-25T11:22:20.473Z,990.36
2022-12-25T11:23:20.521Z,990.37
2022-12-25T11:24:20.473Z,990.36
2022-12-25T11:25:20.543Z,990.43
2022-12-25T11:26:20.520Z,990.36
2022-12-25T11:27:20.468Z,990.32
2022-12-25T11:28:20.510Z,990.42
2022-12-25T11:29:20.499Z,990.39
2022-12-25T11:30:20.486Z,990.36
2022-12-25T11:31:20.553Z,990.35
2022-12-25T11:32:20.504Z,990.35
2022-12-25T11:33:20.496Z,990.25
2022-12-25T11:34:20.492Z,990.34
2022-12-25T11:35:20.506Z,990.27
2022-12-25T11:36:20.530Z,990.29
2022-12-25T11:37:20.499Z,990.24
2022-12-25T11:38:20.511Z,990.28
2022-12-25T11:39:20.502Z,990.28
2022-12-25T11:40:20.504Z,990.26
2022-12-25T11:41:20.635Z,990.17
2022-12-25T11:42:20.511Z,990.16
2022-12-25T11:43:20.513Z,990.15
2022-12-25T11:44:20.513Z,990.12
2022-12-25T11:45:20.515Z,990.02
2022-12-25T11:46:20.558Z,990.10
2022-12-25T11:47:20.530Z,989.96
2022-12-25T11:48:20.498Z,989.96
2022-12-25T11:49:20.506Z,989.82
2022-12-25T11:50:20.517Z,989.80
2022-12-25T11:51:20.556Z,989.77
2022-12-25T11:52:20.502Z,989.78
2022-12-25T11:53:20.541Z,989.73
2022-12-25T11:54:20.516Z,989.69
2022-12-25T11:55:20.520Z,989.54
2022-12-25T11:56:20.548Z,989.47
2022-12-25T11:57:20.502Z,989.33
2022-12-25T11:58:20.540Z,989.30
2022-12-25T11:59:20.522Z,989.33
2022-12-25T12:00:20.520Z,989.22
2022-12-25T12:01:20.569Z,989.08
2022-12-25T12:02:20.618Z,989.05
2022-12-25T12:03:20.720Z,989.34
2022-12-25T12:04:24.391Z,989.44
2022-12-25T12:05:20.532Z,989.50
2022-12-25T12:06:20.535Z,989.41
2022-12-25T12:07:20.522Z,989.43
2022-12-25T12:08:20.544Z,989.39
2022-12-25T12:09:20.530Z,989.41
2022-12-25T12:10:20.539Z,989.38
2022-12-25T12:11:20.557Z,989.35
2022-12-25T12:12:20.545Z,989.31
2022-12-25T12:13:20.530Z,989.34
2022-12-25T12:14:20.536Z,989.32
2022-12-25T12:15:20.557Z,989.27
2022-12-25T12:16:20.594Z,989.33
2022-12-25T12:17:20.557Z,989.30
2022-12-25T12:18:20.551Z,989.35
2022-12-25T12:19:20.534Z,989.28
2022-12-25T12:20:20.539Z,989.30
2022-12-25T12:21:20.555Z,989.27
2022-12-25T12:22:20.603Z,989.27
2022-12-25T12:23:20.540Z,989.29
2022-12-25T12:24:20.576Z,989.26
2022-12-25T12:25:20.543Z,989.24
2022-12-25T12:26:21.728Z,989.20
2022-12-25T12:27:20.556Z,989.18
2022-12-25T12:28:20.595Z,989.13